Time;durP1;ratioP1;P1;durP2;ratioP2;P2;SDS_P1;SDS_P2;PMS_P1;PMS_P2;Temp;Humidity;BMP_temperature;BMP_pressure;BME280_temperature;BME280_humidity;BME280_pressure;Samples;Min_cycle;Max_cycle;Signal;HPM_P1;HPM_P2
2022/08/20 00:01:08;;;;;;;9.48;5.05;;;;;;;27.93;51.65;100265.66;2094132;28;20052;-72
2022/08/20 00:02:39;;;;;;;9.20;4.75;;;;;;;27.93;51.57;100260.22;2098396;28;20066;-72
2022/08/20 00:04:00;;;;;;;7.35;4.32;;;;;;;27.94;51.57;100261.97;2096956;28;20052;-73
2022/08/20 00:05:25;;;;;;;9.27;5.10;;;;;;;27.94;51.55;100259.28;2103097;28;20048;-73
2022/08/20 00:06:48;;;;;;;10.13;4.97;;;;;;;27.91;51.56;100271.19;2120697;27;20141;-73
2022/08/20 00:08:10;;;;;;;8.73;5.47;;;;;;;27.91;51.68;100257.59;2108834;28;20052;-73
2022/08/20 00:09:33;;;;;;;;;;;;;;;27.85;51.88;100263.44;2106800;28;20093;-73
2022/08/20 00:10:56;;;;;;;7.32;5.28;;;;;;;27.85;51.84;100258.00;2103677;28;19920;-73
2022/08/20 00:12:18;;;;;;;8.65;4.53;;;;;;;27.85;51.72;100262.56;2098550;28;20404;-72
2022/08/20 00:13:45;;;;;;;11.70;4.90;;;;;;;27.85;51.75;100265.28;2115962;27;20043;-72
2022/08/20 00:15:07;;;;;;;9.82;5.00;;;;;;;27.83;51.69;100254.50;2099878;28;20048;-72
2022/08/20 00:16:31;;;;;;;;;;;;;;;27.80;51.75;100259.28;2118326;27;20051;-72
2022/08/20 00:17:53;;;;;;;7.10;4.93;;;;;;;27.77;51.75;100253.06;2096648;28;19943;-73
2022/08/20 00:19:17;;;;;;;8.25;5.05;;;;;;;27.79;51.61;100252.09;2102970;28;20076;-73
2022/08/20 00:20:41;;;;;;;7.00;4.82;;;;;;;27.80;51.46;100248.41;2100134;28;20032;-73
2022/08/20 00:22:04;;;;;;;7.90;5.03;;;;;;;27.80;51.22;100265.56;2103033;28;20044;-73
2022/08/20 00:23:27;;;;;;;9.13;5.22;;;;;;;27.80;51.10;100257.44;2103211;28;20146;-73
2022/08/20 00:24:48;;;;;;;6.97;4.38;;;;;;;27.81;51.03;100248.34;2102894;28;20048;-73
2022/08/20 00:26:13;;;;;;;6.80;4.30;;;;;;;27.81;50.99;100258.31;2102762;28;20040;-73
2022/08/20 00:27:34;;;;;;;8.48;5.10;;;;;;;27.80;51.02;100257.44;2104064;27;20052;-72
2022/08/20 00:28:58;;;;;;;6.43;3.78;;;;;;;27.80;51.00;100251.13;2097785;28;20040;-72
2022/08/20 00:30:20;;;;;;;8.68;5.80;;;;;;;27.81;50.96;100248.34;2107769;28;20040;-72
2022/08/20 00:31:42;;;;;;;;;;;;;;;27.80;51.04;100253.84;2105810;28;20132;-72
2022/08/20 00:33:06;;;;;;;11.15;5.35;;;;;;;27.80;50.99;100256.56;2103352;28;19920;-72
2022/08/20 00:34:29;;;;;;;12.30;6.25;;;;;;;27.81;50.96;100247.47;2111001;28;20101;-72
2022/08/20 00:35:55;;;;;;;9.05;4.53;;;;;;;27.79;51.19;100241.25;2096260;28;20048;-72
2022/08/20 00:37:17;;;;;;;7.53;4.95;;;;;;;27.80;50.87;100243.88;2095370;28;20424;-72
2022/08/20 00:38:42;;;;;;;11.10;4.80;;;;;;;27.80;50.94;100252.00;2118609;27;20043;-72
2022/08/20 00:40:07;;;;;;;8.98;5.10;;;;;;;27.80;50.93;100251.13;2099864;28;20103;-72
2022/08/20 00:41:31;;;;;;;9.65;4.75;;;;;;;27.79;50.92;100258.41;2102033;28;20056;-73
2022/08/20 00:42:56;;;;;;;8.93;5.13;;;;;;;27.80;50.96;100238.44;2093804;28;20556;-72
2022/08/20 00:44:22;;;;;;;7.75;4.80;;;;;;;27.80;50.95;100254.72;2092105;28;20140;-72
2022/08/20 00:45:45;;;;;;;8.38;5.07;;;;;;;27.80;51.04;100253.84;2101951;28;20089;-72
2022/08/20 00:47:08;;;;;;;12.05;4.88;;;;;;;27.79;51.07;100258.41;2102881;28;20044;-72
2022/08/20 00:48:32;;;;;;;8.52;4.90;;;;;;;27.80;51.25;100245.72;2096354;28;20094;-72
2022/08/20 00:49:55;;;;;;;8.70;4.80;;;;;;;27.80;51.00;100257.44;2109758;28;20055;-72
2022/08/20 00:51:26;;;;;;;8.00;4.88;;;;;;;27.81;51.03;100244.75;2106011;28;20086;-73
2022/08/20 00:52:51;;;;;;;10.88;5.68;;;;;;;27.81;50.95;100248.34;2097328;28;20048;-73
2022/08/20 00:54:18;;;;;;;7.45;4.95;;;;;;;27.81;50.88;100247.47;2101175;28;20064;-73
2022/08/20 00:55:41;;;;;;;10.60;4.78;;;;;;;27.80;51.14;100251.13;2095136;28;20053;-72
2022/08/20 00:57:09;;;;;;;7.82;5.50;;;;;;;27.79;51.23;100249.38;2103806;28;20040;-73
2022/08/20 00:58:31;;;;;;;8.73;5.28;;;;;;;27.80;51.27;100259.28;2096126;28;20040;-73
2022/08/20 00:59:57;;;;;;;6.32;4.70;;;;;;;27.80;51.21;100257.44;2102536;28;20044;-72
2022/08/20 01:01:21;;;;;;;7.60;4.40;;;;;;;27.79;51.31;100257.53;2104961;28;20089;-73
2022/08/20 01:02:45;;;;;;;8.52;5.13;;;;;;;27.77;51.33;100261.19;2110532;28;20104;-72
2022/08/20 01:04:09;;;;;;;13.88;4.90;;;;;;;27.77;51.50;100268.47;2089221;28;20072;-73
2022/08/20 01:05:32;;;;;;;9.45;5.38;;;;;;;27.76;51.48;100255.91;2115603;27;20497;-73
2022/08/20 01:06:55;;;;;;;6.70;4.68;;;;;;;27.74;51.61;100256.00;2109200;27;20075;-73
2022/08/20 01:08:19;;;;;;;11.15;5.03;;;;;;;27.74;51.42;100256.00;2113314;27;20074;-73
2022/08/20 01:09:42;;;;;;;8.88;4.22;;;;;;;27.74;51.52;100246.97;2085979;28;20584;-73
2022/08/20 01:11:09;;;;;;;9.13;5.15;;;;;;;27.73;51.34;100246.09;2100361;28;20044;-73
2022/08/20 01:12:31;;;;;;;8.35;4.85;;;;;;;27.72;51.29;100255.19;2097775;28;20054;-73
2022/08/20 01:13:54;;;;;;;11.45;4.88;;;;;;;27.73;50.99;100247.94;2100287;28;20048;-73
2022/08/20 01:15:20;;;;;;;8.60;4.60;;;;;;;27.74;51.03;100245.13;2103079;28;20044;-73
2022/08/20 01:16:45;;;;;;;9.52;4.82;;;;;;;27.73;50.95;100247.94;2088694;28;20045;-73
2022/08/20 01:18:12;;;;;;;8.10;5.35;;;;;;;27.73;50.94;100250.66;2112349;27;20137;-73
2022/08/20 01:19:38;;;;;;;8.90;5.35;;;;;;;27.71;51.02;100250.75;2105588;28;20101;-73
2022/08/20 01:21:03;;;;;;;8.80;4.90;;;;;;;27.69;51.09;100247.28;2104249;28;20072;-73
2022/08/20 01:24:22;;;;;;;10.52;5.20;;;;;;;27.67;51.33;100248.34;2114001;28;20044;-74
2022/08/20 01:25:51;;;;;;;8.07;4.65;;;;;;;27.66;51.51;100246.59;2104676;28;20117;-73
2022/08/20 01:27:13;;;;;;;10.80;5.38;;;;;;;27.65;51.43;100247.53;2111466;28;20031;-72
2022/08/20 01:28:41;;;;;;;8.93;4.95;;;;;;;27.65;51.68;100250.25;2105060;28;20047;-72
2022/08/20 01:30:04;;;;;;;8.40;4.97;;;;;;;27.64;51.69;100251.22;2102703;28;20052;-72
2022/08/20 01:31:29;;;;;;;8.48;4.85;;;;;;;27.65;51.77;100248.41;2102514;28;20032;-72
2022/08/20 01:32:50;;;;;;;8.02;4.60;;;;;;;27.65;51.86;100256.56;2109901;28;20056;-72
2022/08/20 01:34:16;;;;;;;7.82;4.95;;;;;;;27.67;51.94;100256.47;2097106;28;20145;-72
2022/08/20 01:35:41;;;;;;;10.10;4.63;;;;;;;27.67;51.76;100248.34;2099493;28;20046;-72
2022/08/20 01:37:04;;;;;;;11.10;5.10;;;;;;;27.67;51.79;100249.22;2094380;28;20405;-72
2022/08/20 01:38:26;;;;;;;8.70;4.57;;;;;;;27.68;51.77;100250.09;2094349;28;20114;-73
2022/08/20 01:39:49;;;;;;;11.82;4.55;;;;;;;27.68;51.67;100248.25;2094534;28;20036;-73
2022/08/20 01:41:22;;;;;;;9.00;4.47;;;;;;;27.66;51.83;100246.59;2102701;28;20108;-73
2022/08/20 01:42:49;;;;;;;11.38;5.03;;;;;;;27.65;51.93;100250.25;2102356;28;20131;-71
2022/08/20 01:44:11;;;;;;;9.70;6.65;;;;;;;27.61;52.01;100249.59;2101171;28;20067;-72
2022/08/20 01:45:35;;;;;;;7.45;4.55;;;;;;;27.60;52.29;100255.97;2101101;28;20105;-72
2022/08/20 01:46:58;;;;;;;7.32;4.72;;;;;;;27.59;52.19;100246.09;2104689;28;20731;-72
2022/08/20 01:48:21;;;;;;;9.10;5.13;;;;;;;27.57;52.33;100253.44;2102778;28;20056;-72
2022/08/20 01:49:50;;;;;;;8.00;5.00;;;;;;;27.56;52.44;100257.16;2094631;28;20037;-72
2022/08/20 01:51:17;;;;;;;6.90;4.70;;;;;;;27.57;52.60;100258.88;2101062;28;20507;-73
2022/08/20 01:52:45;;;;;;;8.57;4.85;;;;;;;27.58;52.51;100247.06;2100173;28;20695;-72
2022/08/20 01:54:08;;;;;;;8.43;5.32;;;;;;;27.58;52.64;100249.78;2103658;28;20055;-72
2022/08/20 01:55:30;;;;;;;9.02;4.72;;;;;;;27.59;52.53;100259.66;2093158;28;20048;-73
2022/08/20 01:56:58;;;;;;;7.93;4.50;;;;;;;27.59;52.42;100246.09;2098804;28;20058;-73
2022/08/20 01:58:19;;;;;;;8.95;5.15;;;;;;;27.57;52.40;100253.44;2102257;28;20455;-72
2022/08/20 01:59:43;;;;;;;8.82;4.78;;;;;;;27.56;52.50;100245.44;2107124;28;20040;-72
2022/08/20 02:01:04;;;;;;;7.35;4.57;;;;;;;27.55;52.49;100247.28;2096321;28;20048;-72
2022/08/20 02:02:27;;;;;;;9.90;4.57;;;;;;;27.54;52.25;100248.22;2094376;28;20048;-73
2022/08/20 02:03:49;;;;;;;14.65;5.55;;;;;;;27.53;52.39;100251.91;2110342;28;20522;-73
2022/08/20 02:05:11;;;;;;;;;;;;;;;27.48;52.55;100248.59;2099752;28;20036;-72
2022/08/20 02:06:42;;;;;;;11.32;5.70;;;;;;;27.48;52.47;100251.28;2100045;28;19924;-72
2022/08/20 02:08:05;;;;;;;7.55;4.90;;;;;;;27.49;52.59;100254.88;2110037;28;20422;-72
2022/08/20 02:09:30;;;;;;;11.68;4.38;;;;;;;27.47;52.48;100254.97;2107166;28;20072;-73
2022/08/20 02:10:51;;;;;;;8.65;4.68;;;;;;;27.45;52.57;100259.59;2102832;28;20420;-72
2022/08/20 02:12:16;;;;;;;9.60;5.50;;;;;;;27.45;52.60;100259.59;2102028;28;20040;-73
2022/08/20 02:13:39;;;;;;;13.25;5.45;;;;;;;27.45;52.78;100254.19;2094374;28;20071;-73
2022/08/20 02:15:02;;;;;;;9.02;5.28;;;;;;;27.45;52.88;100253.31;2102703;28;20200;-73
2022/08/20 02:16:28;;;;;;;8.32;4.80;;;;;;;27.44;52.97;100252.44;2107896;28;20175;-73
2022/08/20 02:17:49;;;;;;;7.47;4.90;;;;;;;27.43;52.80;100249.84;2101513;28;20861;-73
2022/08/20 02:19:17;;;;;;;9.43;5.10;;;;;;;27.43;53.02;100244.44;2103640;28;20044;-74
2022/08/20 02:20:42;;;;;;;9.68;5.13;;;;;;;27.40;53.13;100248.19;2105058;28;20557;-72
2022/08/20 02:22:15;;;;;;;10.95;5.10;;;;;;;27.40;53.09;100253.59;2102298;28;20048;-73
2022/08/20 02:23:38;;;;;;;8.75;4.50;;;;;;;27.37;53.13;100251.94;2103592;28;20032;-73
2022/08/20 02:25:00;;;;;;;8.65;4.75;;;;;;;27.40;53.09;100261.75;2103255;28;20491;-72
2022/08/20 02:26:24;;;;;;;7.75;4.53;;;;;;;27.40;53.06;100250.03;2113686;27;20039;-72
2022/08/20 02:27:47;;;;;;;11.38;5.22;;;;;;;27.40;52.94;100258.16;2106066;28;20131;-72
2022/08/20 02:29:11;;;;;;;10.57;5.50;;;;;;;27.39;53.04;100260.00;2099421;28;20519;-72
2022/08/20 02:30:35;;;;;;;8.63;5.55;;;;;;;27.37;53.10;100249.22;2096724;28;20048;-72
2022/08/20 02:31:58;;;;;;;7.68;5.18;;;;;;;27.38;53.18;100242.84;2087432;28;20052;-73
2022/08/20 02:33:21;;;;;;;7.43;5.30;;;;;;;27.41;53.08;100241.81;2090796;28;20444;-72
2022/08/20 02:34:43;;;;;;;10.65;5.35;;;;;;;27.43;53.15;100239.00;2100115;28;20077;-73
2022/08/20 02:36:07;;;;;;;9.95;4.82;;;;;;;27.44;53.04;100243.47;2102699;28;20492;-72
2022/08/20 02:37:29;;;;;;;9.88;5.10;;;;;;;27.45;53.14;100237.91;2104949;28;20093;-73
2022/08/20 02:38:51;;;;;;;7.78;5.05;;;;;;;27.47;53.04;100237.81;2101951;28;20634;-73
2022/08/20 02:40:16;;;;;;;10.30;4.82;;;;;;;27.47;53.01;100233.28;2102216;28;20048;-72
2022/08/20 02:41:39;;;;;;;9.45;6.00;;;;;;;27.47;52.89;100232.41;2100913;28;20036;-72
2022/08/20 02:43:05;;;;;;;8.40;4.57;;;;;;;27.47;52.95;100241.41;2097517;28;20048;-72
2022/08/20 02:44:27;;;;;;;9.20;6.38;;;;;;;27.47;53.04;100245.97;2099596;28;20054;-72
2022/08/20 02:45:50;;;;;;;8.32;5.55;;;;;;;27.46;52.77;100245.09;2101713;28;20051;-72
2022/08/20 02:47:11;;;;;;;10.55;4.97;;;;;;;27.44;52.80;100241.59;2104134;28;20040;-72
2022/08/20 02:48:34;;;;;;;11.73;5.05;;;;;;;27.43;53.05;100248.00;2105060;28;20056;-72
2022/08/20 02:49:56;;;;;;;7.82;5.07;;;;;;;27.43;52.90;100248.00;2101680;28;20046;-72
2022/08/20 02:51:19;;;;;;;8.48;5.30;;;;;;;27.42;52.78;100251.69;2101901;28;20086;-71
2022/08/20 02:52:41;;;;;;;15.30;5.00;;;;;;;27.43;52.72;100250.72;2102549;28;20075;-71
2022/08/20 02:54:03;;;;;;;11.05;5.35;;;;;;;27.43;52.83;100250.72;2101000;28;20110;-72
2022/08/20 02:55:25;;;;;;;10.00;5.50;;;;;;;27.41;52.73;100252.66;2102411;28;20071;-72
2022/08/20 02:56:48;;;;;;;9.15;5.22;;;;;;;27.40;52.74;100239.19;2101701;28;20126;-72
2022/08/20 02:58:11;;;;;;;9.35;4.68;;;;;;;27.38;52.68;100244.69;2117651;27;20165;-72
2022/08/20 02:59:33;;;;;;;9.30;5.95;;;;;;;27.38;52.67;100241.97;2106585;28;20044;-72
2022/08/20 03:00:55;;;;;;;9.18;4.50;;;;;;;27.38;52.49;100247.41;2118047;27;20130;-72
2022/08/20 03:02:18;;;;;;;8.50;5.10;;;;;;;27.41;52.46;100249.94;2107016;28;20047;-72
2022/08/20 03:03:41;;;;;;;8.30;5.35;;;;;;;27.44;52.19;100257.03;2107919;28;20528;-72
2022/08/20 03:05:03;;;;;;;8.27;5.05;;;;;;;27.45;52.06;100258.72;2099336;28;20435;-72
2022/08/20 03:06:26;;;;;;;;;;;;;;;27.43;52.09;100258.84;2105324;28;20052;-72
2022/08/20 03:07:52;;;;;;;9.13;5.07;;;;;;;27.44;52.23;100262.44;2102279;28;20018;-72
2022/08/20 03:09:14;;;;;;;10.30;5.18;;;;;;;27.45;52.16;100267.75;2096564;28;20058;-72
2022/08/20 03:10:38;;;;;;;8.75;5.35;;;;;;;27.47;52.25;100267.66;2112536;27;20369;-72
2022/08/20 03:12:01;;;;;;;8.80;5.25;;;;;;;27.46;52.38;100261.34;2103936;28;20048;-72
2022/08/20 03:13:26;;;;;;;8.50;5.45;;;;;;;27.45;52.49;100264.16;2109202;28;20156;-72
2022/08/20 03:14:47;;;;;;;7.95;5.22;;;;;;;27.43;52.55;100264.28;2110459;28;20052;-72
2022/08/20 03:16:10;;;;;;;8.15;4.95;;;;;;;27.44;52.57;100267.88;2103748;28;20512;-72
2022/08/20 03:17:31;;;;;;;8.30;5.10;;;;;;;27.44;52.51;100266.00;2101065;28;20075;-72
2022/08/20 03:18:54;;;;;;;9.55;5.28;;;;;;;27.47;52.57;100267.66;2100863;28;20064;-71
2022/08/20 03:20:15;;;;;;;10.70;5.43;;;;;;;27.48;52.34;100264.84;2088581;28;20120;-73
2022/08/20 03:21:38;;;;;;;8.25;5.40;;;;;;;27.48;52.43;100270.28;2107663;28;20048;-72
2022/08/20 03:22:59;;;;;;;9.43;5.43;;;;;;;27.48;52.41;100272.13;2104547;28;20094;-72
2022/08/20 03:24:22;;;;;;;11.48;5.00;;;;;;;27.47;52.39;100257.69;2102239;28;20048;-73
2022/08/20 03:25:43;;;;;;;8.88;4.95;;;;;;;27.47;52.30;100260.41;2101772;28;20060;-72
2022/08/20 03:27:06;;;;;;;8.00;4.68;;;;;;;27.49;52.38;100257.59;2118666;28;20051;-72
2022/08/20 03:28:30;;;;;;;9.13;5.43;;;;;;;27.51;52.15;100261.06;2106665;28;20032;-72
2022/08/20 03:29:52;;;;;;;8.38;4.72;;;;;;;27.50;52.24;100262.94;2103119;28;20056;-72
2022/08/20 03:31:14;;;;;;;8.93;4.70;;;;;;;27.49;52.13;100261.19;2095957;28;20049;-72
2022/08/20 03:32:37;;;;;;;7.47;4.47;;;;;;;27.47;52.23;100256.81;2096448;28;20049;-73
2022/08/20 03:34:00;;;;;;;11.00;5.20;;;;;;;27.47;52.27;100273.97;2104227;28;20052;-73
2022/08/20 03:35:24;;;;;;;9.93;5.03;;;;;;;27.47;52.27;100267.66;2101730;28;20052;-72
2022/08/20 03:36:46;;;;;;;9.98;5.38;;;;;;;27.46;52.33;100277.63;2104384;28;20136;-72
2022/08/20 03:38:09;;;;;;;10.15;4.90;;;;;;;27.44;52.41;100276.00;2093493;28;20049;-73
2022/08/20 03:39:32;;;;;;;6.35;4.35;;;;;;;27.46;52.47;100284.88;2092269;28;20063;-72
2022/08/20 03:40:54;;;;;;;9.20;5.43;;;;;;;27.47;52.41;100281.22;2091515;28;20049;-73
2022/08/20 03:42:16;;;;;;;9.80;5.50;;;;;;;27.47;52.41;100287.50;2099522;28;20100;-72
2022/08/20 03:43:40;;;;;;;9.77;5.40;;;;;;;27.46;52.47;100279.47;2100846;28;20044;-73
2022/08/20 03:45:02;;;;;;;11.70;5.32;;;;;;;27.44;52.61;100276.00;2103392;28;20522;-72
2022/08/20 03:46:25;;;;;;;9.68;4.70;;;;;;;27.44;52.66;100281.44;2103999;28;20458;-72
2022/08/20 03:47:48;;;;;;;7.68;4.90;;;;;;;27.43;52.80;100283.25;2104131;28;20930;-72
2022/08/20 03:49:11;;;;;;;9.52;5.95;;;;;;;27.46;52.87;100295.75;2108195;28;20093;-72
2022/08/20 03:50:33;;;;;;;10.13;5.43;;;;;;;27.47;52.84;100292.94;2103487;28;20056;-72
2022/08/20 03:51:56;;;;;;;8.07;4.68;;;;;;;27.48;53.02;100297.41;2093328;28;20044;-72
2022/08/20 03:53:18;;;;;;;8.65;5.28;;;;;;;27.48;52.94;100297.41;2107989;28;20131;-72
2022/08/20 03:54:40;;;;;;;10.50;5.30;;;;;;;27.49;53.04;100299.16;2104650;28;20059;-72
2022/08/20 03:56:05;;;;;;;8.48;4.97;;;;;;;27.51;53.05;100305.34;2085462;28;20140;-72
2022/08/20 03:57:27;;;;;;;9.05;5.38;;;;;;;27.56;53.11;100299.69;2104862;28;20492;-72
2022/08/20 03:58:51;;;;;;;;;;;;;;;27.57;53.06;100298.72;2104098;28;20496;-72
2022/08/20 04:00:15;;;;;;;10.50;4.90;;;;;;;27.63;52.95;100292.91;2100557;28;19923;-72
2022/08/20 04:01:37;;;;;;;7.88;4.85;;;;;;;27.68;52.91;100297.06;2106736;28;20088;-72
2022/08/20 04:03:00;;;;;;;9.32;5.38;;;;;;;27.73;52.88;100300.34;2105357;28;20047;-71
2022/08/20 04:04:22;;;;;;;10.13;5.63;;;;;;;27.81;52.80;100301.72;2099666;28;20036;-71
2022/08/20 04:05:46;;;;;;;7.88;4.60;;;;;;;27.86;52.87;100300.47;2108975;28;20040;-72
2022/08/20 04:07:12;;;;;;;7.75;5.10;;;;;;;27.92;52.70;100299.19;2104011;28;20105;-72
2022/08/20 04:08:35;;;;;;;8.32;4.93;;;;;;;27.97;52.78;100300.63;2102503;28;20492;-72
2022/08/20 04:09:56;;;;;;;8.75;4.95;;;;;;;28.02;52.69;100297.66;2100770;28;20441;-72
2022/08/20 04:11:19;;;;;;;10.00;4.68;;;;;;;28.09;52.60;100293.56;2107776;28;20601;-72
2022/08/20 04:12:41;;;;;;;9.55;4.82;;;;;;;28.14;52.34;100296.91;2103337;28;20150;-72
2022/08/20 04:14:04;;;;;;;7.75;4.78;;;;;;;28.21;52.29;100300.97;2085872;28;20113;-72
2022/08/20 04:15:27;;;;;;;8.15;5.40;;;;;;;28.29;52.15;100304.03;2097640;28;20052;-72
2022/08/20 04:16:49;;;;;;;8.82;5.10;;;;;;;28.37;52.06;100298.09;2095244;28;20052;-71
2022/08/20 04:18:13;;;;;;;11.68;5.63;;;;;;;28.44;51.94;100305.75;2099696;28;20071;-72
2022/08/20 04:19:35;;;;;;;7.68;4.70;;;;;;;28.50;51.92;100299.91;2102554;28;20052;-72
2022/08/20 04:20:58;;;;;;;8.32;4.72;;;;;;;28.59;51.65;100305.72;2119666;27;20050;-72
2022/08/20 04:22:20;;;;;;;9.93;5.05;;;;;;;28.68;51.45;100305.13;2108931;28;20097;-72
2022/08/20 04:23:41;;;;;;;8.52;4.57;;;;;;;28.77;51.30;100296.38;2118705;27;20095;-72
2022/08/20 04:25:05;;;;;;;9.10;4.60;;;;;;;28.86;51.09;100303.91;2108939;27;20044;-73
2022/08/20 04:26:27;;;;;;;10.30;5.03;;;;;;;28.95;50.90;100308.69;2102678;28;20084;-72
2022/08/20 04:27:50;;;;;;;8.02;4.28;;;;;;;29.03;50.97;100303.63;2102822;28;20149;-72
2022/08/20 04:29:13;;;;;;;8.07;4.45;;;;;;;29.14;50.76;100316.50;2094548;28;20044;-73
2022/08/20 04:30:36;;;;;;;11.48;4.82;;;;;;;29.23;50.66;100305.84;2096993;28;20068;-72
2022/08/20 04:31:59;;;;;;;7.85;4.50;;;;;;;29.35;50.40;100323.19;2103256;28;20071;-73
2022/08/20 04:33:23;;;;;;;7.28;4.90;;;;;;;29.46;49.93;100314.31;2103165;28;20144;-72
2022/08/20 04:34:45;;;;;;;10.57;4.70;;;;;;;29.54;49.64;100314.63;2103399;28;20135;-72
2022/08/20 04:36:06;;;;;;;6.97;4.13;;;;;;;29.62;49.34;100298.63;2095484;28;20051;-72
2022/08/20 04:37:29;;;;;;;9.02;4.53;;;;;;;29.71;49.31;100314.31;2103937;28;20135;-73
2022/08/20 04:38:51;;;;;;;11.35;4.35;;;;;;;29.79;48.65;100317.38;2094932;28;20976;-73
2022/08/20 04:41:56;;;;;;;14.52;4.90;;;;;;;29.98;48.42;100306.94;2096280;28;20048;-73
2022/08/20 04:43:18;;;;;;;8.93;4.57;;;;;;;30.07;47.97;100306.25;2093570;28;20064;-72
2022/08/20 04:44:42;;;;;;;7.15;3.90;;;;;;;30.18;47.55;100316.38;2101994;28;20055;-73
2022/08/20 04:46:08;;;;;;;9.95;4.53;;;;;;;30.28;47.29;100305.66;2103529;28;20052;-72
2022/08/20 04:47:31;;;;;;;9.07;4.43;;;;;;;30.40;47.02;100311.09;2108275;28;20067;-73
2022/08/20 04:48:54;;;;;;;6.60;4.35;;;;;;;30.49;46.65;100307.72;2106077;28;20487;-72
2022/08/20 04:50:18;;;;;;;8.50;4.20;;;;;;;30.59;46.76;100305.16;2102013;28;20533;-73
2022/08/20 04:51:41;;;;;;;8.38;4.15;;;;;;;30.68;46.20;100306.34;2101758;28;20044;-73
2022/08/20 04:53:04;;;;;;;8.32;4.60;;;;;;;30.76;46.31;100315.69;2102290;28;20094;-73
2022/08/20 04:54:26;;;;;;;10.43;4.60;;;;;;;30.87;45.94;100310.28;2103208;28;20102;-73
2022/08/20 04:55:48;;;;;;;9.75;4.22;;;;;;;31.01;45.90;100317.41;2094850;28;20037;-73
2022/08/20 04:57:10;;;;;;;;;;;;;;;31.11;45.59;100318.50;2099317;28;20048;-72
2022/08/20 04:58:34;;;;;;;6.95;4.38;;;;;;;31.27;45.42;100323.63;2102926;28;20375;-73
2022/08/20 04:59:58;;;;;;;5.78;3.95;;;;;;;31.41;45.19;100314.38;2108489;28;20039;-72
2022/08/20 05:01:22;;;;;;;10.73;4.63;;;;;;;31.55;44.94;100315.03;2105183;28;20047;-73
2022/08/20 05:02:43;;;;;;;9.45;4.35;;;;;;;31.70;44.82;100307.53;2102399;28;20040;-72
2022/08/20 05:04:06;;;;;;;10.98;4.65;;;;;;;31.81;44.12;100309.38;2093502;28;20061;-73
2022/08/20 05:05:27;;;;;;;7.05;4.57;;;;;;;31.90;43.92;100300.47;2107155;28;20419;-72
2022/08/20 05:06:50;;;;;;;;;;;;;;;31.95;43.93;100299.09;2102873;28;20055;-73
2022/08/20 05:08:12;;;;;;;6.82;4.05;;;;;;;32.07;43.85;100291.78;2104888;28;20054;-72
2022/08/20 05:09:35;;;;;;;6.85;3.83;;;;;;;32.15;43.56;100296.66;2097025;28;20382;-73
2022/08/20 05:10:58;;;;;;;7.15;4.32;;;;;;;32.22;43.51;100290.56;2108506;28;20071;-73
2022/08/20 05:12:19;;;;;;;7.50;4.53;;;;;;;32.29;42.83;100299.13;2091642;28;20044;-73
2022/08/20 05:13:42;;;;;;;5.50;3.83;;;;;;;32.37;42.69;100296.59;2109456;28;20126;-73
2022/08/20 05:15:07;;;;;;;9.68;4.28;;;;;;;32.52;42.63;100297.19;2113614;27;20102;-73
2022/08/20 05:16:36;;;;;;;6.53;4.05;;;;;;;32.63;42.18;100300.78;2103714;28;20139;-73
2022/08/20 05:17:59;;;;;;;7.88;4.13;;;;;;;32.79;42.10;100300.41;2100059;28;20049;-73
2022/08/20 05:19:21;;;;;;;8.18;3.92;;;;;;;32.93;41.79;100291.03;2100908;28;20039;-73
2022/08/20 05:20:44;;;;;;;7.03;4.22;;;;;;;33.07;41.31;100299.81;2118508;27;20053;-73
2022/08/20 05:22:07;;;;;;;8.02;5.07;;;;;;;33.17;41.04;100305.34;2105445;28;20082;-72
2022/08/20 05:23:29;;;;;;;7.75;4.32;;;;;;;33.31;40.72;100299.56;2099033;28;20150;-72
2022/08/20 05:24:52;;;;;;;8.90;4.68;;;;;;;33.45;40.46;100298.38;2100413;28;20036;-73
2022/08/20 05:26:15;;;;;;;7.93;3.50;;;;;;;33.56;40.08;100309.25;2101931;28;20060;-73
2022/08/20 05:27:36;;;;;;;7.78;4.05;;;;;;;33.69;40.14;100303.56;2102795;28;20575;-73
2022/08/20 05:28:58;;;;;;;7.85;4.47;;;;;;;33.81;39.95;100302.50;2102346;28;20143;-74
2022/08/20 05:30:22;;;;;;;8.05;4.43;;;;;;;33.96;39.64;100310.25;2102854;28;20043;-73
2022/08/20 05:31:45;;;;;;;7.32;4.03;;;;;;;34.07;39.69;100311.19;2097191;28;20048;-73
2022/08/20 05:33:09;;;;;;;10.02;4.30;;;;;;;34.22;39.17;100309.81;2097439;28;20100;-73
2022/08/20 05:34:32;;;;;;;7.80;4.00;;;;;;;34.30;38.86;100324.56;2102338;28;20067;-73
2022/08/20 05:35:54;;;;;;;6.78;4.18;;;;;;;34.37;38.64;100309.28;2100998;28;20086;-73
2022/08/20 05:37:16;;;;;;;6.75;4.00;;;;;;;34.48;38.31;100307.44;2107791;28;20036;-73
2022/08/20 05:38:39;;;;;;;11.80;4.22;;;;;;;34.55;38.20;100314.09;2104402;28;20075;-73
2022/08/20 05:40:01;;;;;;;8.52;4.22;;;;;;;34.65;38.01;100318.63;2104448;28;20052;-73
2022/08/20 05:41:27;;;;;;;9.57;4.60;;;;;;;34.74;38.01;100316.91;2102919;28;20059;-73
2022/08/20 05:42:52;;;;;;;7.25;3.50;;;;;;;34.82;37.87;100329.91;2108374;27;20511;-73
2022/08/20 05:44:15;;;;;;;7.78;4.03;;;;;;;34.90;37.82;100322.72;2097177;28;20544;-73
2022/08/20 05:45:39;;;;;;;9.13;4.70;;;;;;;34.95;37.63;100320.41;2107100;28;20065;-73
2022/08/20 05:47:02;;;;;;;6.13;4.20;;;;;;;35.00;37.40;100323.59;2113782;28;20686;-73
2022/08/20 05:48:25;;;;;;;9.95;4.43;;;;;;;35.07;37.38;100322.00;2104639;28;20588;-73
2022/08/20 05:49:48;;;;;;;8.02;4.45;;;;;;;35.10;37.08;100316.25;2102309;28;20472;-73
2022/08/20 05:51:10;;;;;;;5.95;3.80;;;;;;;35.11;37.05;100326.22;2093437;28;20052;-72
2022/08/20 05:52:32;;;;;;;7.32;4.07;;;;;;;35.12;36.89;100321.56;2115769;27;20138;-73
2022/08/20 05:53:55;;;;;;;7.15;3.72;;;;;;;35.10;36.93;100305.25;2114974;27;20543;-73
2022/08/20 05:55:18;;;;;;;8.23;4.43;;;;;;;35.13;36.80;100317.81;2118314;27;20589;-73
2022/08/20 05:56:41;;;;;;;8.77;4.72;;;;;;;35.19;36.79;100328.22;2095598;28;20078;-73
2022/08/20 05:58:06;;;;;;;7.18;4.30;;;;;;;35.27;36.68;100319.28;2095545;28;20078;-73
2022/08/20 05:59:28;;;;;;;7.32;3.78;;;;;;;35.36;36.65;100315.69;2112413;27;20044;-73
2022/08/20 06:00:54;;;;;;;6.80;4.18;;;;;;;35.53;36.39;100324.03;2110519;27;20126;-73
2022/08/20 06:05:36;;;;;;;8.70;3.67;;;;;;;35.62;36.14;100324.16;2105464;28;20085;-73
2022/08/20 06:07:04;;;;;;;6.53;3.97;;;;;;;35.75;36.03;100314.63;2111083;28;20074;-73
2022/08/20 06:08:27;;;;;;;8.15;4.53;;;;;;;35.81;35.96;100303.03;2098771;28;20048;-72
2022/08/20 06:09:51;;;;;;;7.72;4.00;;;;;;;35.76;35.79;100301.75;2099146;28;20082;-72
2022/08/20 06:11:12;;;;;;;9.15;4.28;;;;;;;35.79;35.85;100305.06;2102710;28;20064;-73
2022/08/20 06:12:34;;;;;;;7.97;5.30;;;;;;;35.86;35.80;100300.69;2105238;28;20484;-72
2022/08/20 06:13:57;;;;;;;7.43;3.78;;;;;;;35.93;35.56;100304.59;2100640;28;20075;-72
2022/08/20 06:15:21;;;;;;;11.82;4.13;;;;;;;35.93;35.41;100306.47;2101712;28;20075;-74
2022/08/20 06:16:45;;;;;;;6.03;4.30;;;;;;;35.95;35.41;100318.19;2102606;28;20051;-73
2022/08/20 06:18:10;;;;;;;6.97;4.32;;;;;;;36.02;35.54;100322.06;2106800;28;20093;-73
2022/08/20 06:19:33;;;;;;;8.73;3.30;;;;;;;36.14;35.42;100318.13;2094344;28;20079;-74
2022/08/20 06:20:55;;;;;;;6.55;3.80;;;;;;;36.26;35.16;100329.81;2087956;28;20048;-73
2022/08/20 06:22:19;;;;;;;9.05;3.80;;;;;;;36.27;34.97;100320.56;2098084;28;20270;-73
2022/08/20 06:23:40;;;;;;;6.38;4.05;;;;;;;36.32;34.90;100326.44;2096985;28;20075;-73
2022/08/20 06:25:04;;;;;;;8.30;4.10;;;;;;;36.43;35.03;100331.75;2100105;28;20629;-72
2022/08/20 06:26:25;;;;;;;6.88;3.72;;;;;;;36.47;34.75;100330.44;2096549;28;20072;-72
2022/08/20 06:27:47;;;;;;;;;;;;;;;36.39;34.88;100332.22;2094150;28;20048;-72
2022/08/20 06:29:10;;;;;;;8.65;4.13;;;;;;;36.46;34.80;100330.59;2097758;28;19973;-73
2022/08/20 06:30:32;;;;;;;9.68;3.70;;;;;;;36.49;34.07;100327.53;2099446;28;20105;-73
2022/08/20 06:31:57;;;;;;;6.10;3.78;;;;;;;36.46;34.07;100322.34;2099455;28;20166;-73
2022/08/20 06:33:20;;;;;;;11.57;4.57;;;;;;;36.43;33.83;100337.25;2101781;28;20783;-73
2022/08/20 06:34:43;;;;;;;10.95;4.00;;;;;;;36.44;33.99;100338.09;2119237;27;20035;-73
2022/08/20 06:36:05;;;;;;;5.57;3.80;;;;;;;36.51;34.01;100333.72;2103576;28;20135;-73